Saint Simons Island, GA (31522)

11:21 PM EDT on August 31, 2015 (GMT -0400)
Bloody Marsh | | Change Station
CLOSE
Current Station
Personal Weather Station
Location: Saint Simons Island, GA
Elevation: 7 ft
Nearby Weather Stations

Elev 7 ft 31.16 °N, 81.38 °W | Updated 41 minutes ago

Mostly Cloudy
Mostly Cloudy
76.3 °F
Feels Like 78 °F
N
0.0
Wind Variable Wind from North
Gusts 0.0 mph

Today
High -- | Low -- °F
--% Chance of Precip.
Yesterday
High -- | Low -- °F
Precip. -- in
7:00 AM 7:50 PM
Waning Gibbous, 92% visible
Pressure 30.08 in
Visibility 10.0 miles
Clouds Scattered Clouds 2100 ft
Mostly Cloudy 2700 ft
Heat Index 78 °F
Dew Point 69 °F
Humidity 79%
Rainfall in
Snow Depth Not available.
UV 0 out of 12
Pollen 3.00 out of 12
Air Quality Not available.
Flu Activity Not available.
SPECI KSSI 010301Z AUTO 00000KT 10SM SCT021 BKN027 27/24 A3008 RMK AO2 T02720244
Pressure 30.08 in
Visibility 10.0 miles
Clouds Scattered Clouds 2100 ft
Mostly Cloudy 2700 ft
Heat Index 78 °F
Dew Point 69 °F
Humidity 79%
Rainfall in
Snow Depth Not available.
UV 0 out of 12
Pollen 3.00 out of 12
Air Quality Not available.
Flu Activity Not available.
SPECI KSSI 010301Z AUTO 00000KT 10SM SCT021 BKN027 27/24 A3008 RMK AO2 T02720244

10-Day Weather Forecast

×

Almanac

Astronomy

Aug. 31, 2015 Rise Set
Actual Time
Civil Twilight
Nautical Twilight
Astronomical Twilight
Moon
Length of Visible Light
Length of Day
Tomorrow will be .
, % of the Moon is Illuminated

Today's Extremes

State Highs State Lows

Community

WunderPhotos

Upload Photos

1,851,474 photos uploaded!

WunderBlogs® & News

Nearby

Air Quality

  Air Quality AQ Index Pollutant
Not available.

Snow Depth

Station Depth Elevation

Earthquake Activity

City Distance Mag. Time & Date
Minimum magnitude displayed is 2.5.

Coastal Water Temperatures

Place Temperature

Stations

Nearby Weather Stations

Station Location Temp. Windchill Dew Point Humidity Wind Precip. Elev Updated Type